createdAt,value
2022-11-05T00:02:00.947Z,6.50
2022-11-05T00:04:46.488Z,6.00
2022-11-05T00:07:50.367Z,5.93
2022-11-05T00:10:28.366Z,5.25
2022-11-05T00:13:16.727Z,5.32
2022-11-05T00:16:02.618Z,4.80
2022-11-05T00:18:29.495Z,5.22
2022-11-05T00:20:57.210Z,5.00
2022-11-05T00:23:42.934Z,5.13
2022-11-05T00:26:11.819Z,4.97
2022-11-05T00:28:42.241Z,4.78
2022-11-05T00:31:13.764Z,4.97
2022-11-05T00:33:43.628Z,4.57
2022-11-05T00:36:12.199Z,4.15
2022-11-05T00:38:38.961Z,3.90
2022-11-05T00:41:05.817Z,4.20
2022-11-05T00:43:51.010Z,4.63
2022-11-05T00:46:17.649Z,4.32
2022-11-05T00:49:02.810Z,4.10
2022-11-05T00:51:29.466Z,4.40
2022-11-05T00:53:56.142Z,4.43
2022-11-05T00:56:22.853Z,4.50
2022-11-05T00:58:49.537Z,3.95
2022-11-05T01:01:16.260Z,4.22
2022-11-05T01:03:46.215Z,3.90
2022-11-05T01:06:17.579Z,4.13
2022-11-05T01:08:45.887Z,3.67
2022-11-05T01:11:33.798Z,3.63
2022-11-05T01:14:01.586Z,3.67
2022-11-05T01:16:28.341Z,4.03
2022-11-05T01:18:55.054Z,3.67
2022-11-05T01:21:21.680Z,3.67
2022-11-05T01:23:48.877Z,3.40
2022-11-05T01:26:15.545Z,3.08
2022-11-05T01:28:42.323Z,2.30
2022-11-05T01:31:08.993Z,1.90
2022-11-05T01:33:35.676Z,2.13
2022-11-05T01:36:04.481Z,1.90
2022-11-05T01:38:31.089Z,1.58
2022-11-05T01:40:57.718Z,2.03
2022-11-05T01:43:24.388Z,1.60
2022-11-05T01:45:55.230Z,1.52
2022-11-05T01:48:28.150Z,1.88
2022-11-05T01:51:04.976Z,1.83
2022-11-05T01:53:46.939Z,1.52
2022-11-05T01:56:29.978Z,1.52
2022-11-05T01:59:06.277Z,1.40
2022-11-05T02:01:33.613Z,1.83
2022-11-05T02:04:04.704Z,1.50
2022-11-05T02:06:34.883Z,1.50
2022-11-05T02:09:12.951Z,1.45
2022-11-05T02:11:39.592Z,1.60
2022-11-05T02:14:06.538Z,1.67
2022-11-05T02:16:48.457Z,1.20
2022-11-05T02:19:40.207Z,1.38
2022-11-05T02:22:25.690Z,1.50
2022-11-05T02:25:29.916Z,1.70
2022-11-05T02:28:34.119Z,1.30
2022-11-05T02:31:08.945Z,1.35
2022-11-05T02:33:35.573Z,1.20
2022-11-05T02:36:21.025Z,1.23
2022-11-05T02:39:06.178Z,1.45
2022-11-05T02:41:38.596Z,1.67
2022-11-05T02:44:12.861Z,1.80
2022-11-05T02:46:56.353Z,1.65
2022-11-05T02:49:46.127Z,1.55
2022-11-05T02:52:23.493Z,1.70
2022-11-05T02:55:08.788Z,1.30
2022-11-05T02:57:36.796Z,1.50
2022-11-05T03:00:28.823Z,1.50
2022-11-05T03:02:55.570Z,1.45
2022-11-05T03:05:32.933Z,1.48
2022-11-05T03:08:11.550Z,1.48
2022-11-05T03:10:52.959Z,1.38
2022-11-05T03:13:29.522Z,1.55
2022-11-05T03:16:17.313Z,1.45
2022-11-05T03:18:58.483Z,1.42
2022-11-05T03:21:56.381Z,1.45
2022-11-05T03:24:31.607Z,1.60
2022-11-05T03:27:12.893Z,1.50
2022-11-05T03:29:45.029Z,1.50
2022-11-05T03:32:14.617Z,1.80
2022-11-05T03:34:51.985Z,1.60
2022-11-05T03:37:22.514Z,1.60
2022-11-05T03:39:52.786Z,1.70
2022-11-05T03:42:23.797Z,1.70
2022-11-05T03:44:55.126Z,1.65
2022-11-05T03:47:25.799Z,1.80
2022-11-05T03:49:58.643Z,1.77
2022-11-05T03:52:29.955Z,1.67
2022-11-05T03:54:56.823Z,2.03
2022-11-05T03:57:31.426Z,1.67
2022-11-05T03:59:58.080Z,1.55
2022-11-05T04:02:27.013Z,1.90
2022-11-05T04:04:54.631Z,1.17
2022-11-05T04:07:40.007Z,1.73
2022-11-05T04:10:25.333Z,1.70
2022-11-05T04:13:10.869Z,1.73
2022-11-05T04:15:56.510Z,1.40
2022-11-05T04:18:23.271Z,1.48
2022-11-05T04:21:08.617Z,1.65
2022-11-05T04:23:53.890Z,1.55
2022-11-05T04:26:23.496Z,1.25
2022-11-05T04:29:09.358Z,1.48
2022-11-05T04:31:36.069Z,1.67
2022-11-05T04:34:02.897Z,1.70
2022-11-05T04:36:29.771Z,1.52
2022-11-05T04:38:56.499Z,1.70
2022-11-05T04:41:23.336Z,1.80
2022-11-05T04:43:50.023Z,1.85
2022-11-05T04:46:16.668Z,1.65
2022-11-05T04:48:43.407Z,1.73
2022-11-05T04:51:10.049Z,2.25
2022-11-05T04:53:36.722Z,2.40
2022-11-05T04:56:18.325Z,2.50
2022-11-05T04:58:45.248Z,2.70
2022-11-05T05:01:23.326Z,2.90
2022-11-05T05:03:51.524Z,3.10
2022-11-05T05:06:19.045Z,2.88
2022-11-05T05:08:49.802Z,2.88
2022-11-05T05:11:18.712Z,2.88
2022-11-05T05:13:45.863Z,3.13
2022-11-05T05:16:30.581Z,4.00
2022-11-05T05:18:57.307Z,3.13
2022-11-05T05:21:39.284Z,3.42
2022-11-05T05:24:15.962Z,3.45
2022-11-05T05:26:45.810Z,3.42
2022-11-05T05:29:12.912Z,3.25
2022-11-05T05:31:40.119Z,3.55
2022-11-05T05:34:08.378Z,3.33
2022-11-05T05:36:35.024Z,3.45
2022-11-05T05:39:01.947Z,3.45
2022-11-05T05:41:28.587Z,3.65
2022-11-05T05:43:55.298Z,3.53
2022-11-05T05:46:21.989Z,3.05
2022-11-05T05:48:50.919Z,3.22
2022-11-05T05:51:18.673Z,3.90
2022-11-05T05:53:45.484Z,3.38
2022-11-05T05:56:15.008Z,3.20
2022-11-05T05:58:42.209Z,3.80
2022-11-05T06:01:18.348Z,3.67
2022-11-05T06:03:46.388Z,3.28
2022-11-05T06:06:14.965Z,3.88
2022-11-05T06:08:42.776Z,2.85
2022-11-05T06:11:09.904Z,3.70
2022-11-05T06:13:37.481Z,3.75
2022-11-05T06:16:06.781Z,3.58
2022-11-05T06:18:34.367Z,3.55
2022-11-05T06:21:06.802Z,3.42
2022-11-05T06:23:35.380Z,3.88
2022-11-05T06:26:03.981Z,3.78
2022-11-05T06:28:31.152Z,3.88
2022-11-05T06:30:58.134Z,4.20
2022-11-05T06:33:25.573Z,3.95
2022-11-05T06:35:53.254Z,4.05
2022-11-05T06:38:20.452Z,4.07
2022-11-05T06:40:47.116Z,3.83
2022-11-05T06:43:14.148Z,4.13
2022-11-05T06:45:41.110Z,3.60
2022-11-05T06:48:07.800Z,3.95
2022-11-05T06:50:34.614Z,3.35
2022-11-05T06:53:04.594Z,3.60
2022-11-05T06:55:32.036Z,3.58
2022-11-05T06:57:59.026Z,3.00
2022-11-05T07:00:26.026Z,2.88
2022-11-05T07:02:52.845Z,2.17
2022-11-05T07:05:19.495Z,1.95
2022-11-05T07:07:46.115Z,1.85
2022-11-05T07:10:16.141Z,1.88
2022-11-05T07:12:43.430Z,1.40
2022-11-05T07:15:12.110Z,1.20
2022-11-05T07:17:39.831Z,1.17
2022-11-05T07:20:08.259Z,1.30
2022-11-05T07:22:35.840Z,1.30
2022-11-05T07:25:02.993Z,1.25
2022-11-05T07:27:29.633Z,0.82
2022-11-05T07:29:56.475Z,0.50
2022-11-05T07:32:23.326Z,0.60
2022-11-05T07:34:50.015Z,0.70
2022-11-05T07:37:16.871Z,0.60
2022-11-05T07:39:43.611Z,0.52
2022-11-05T07:42:13.498Z,0.95
2022-11-05T07:44:40.586Z,0.60
2022-11-05T07:47:07.588Z,0.68
2022-11-05T07:49:34.227Z,0.90
2022-11-05T07:52:01.019Z,0.70
2022-11-05T07:54:27.818Z,0.70
2022-11-05T07:56:54.520Z,0.68
2022-11-05T07:59:21.242Z,1.20
2022-11-05T08:01:48.072Z,1.67
2022-11-05T08:04:14.911Z,1.98
2022-11-05T08:06:41.543Z,1.33
2022-11-05T08:09:09.206Z,1.10
2022-11-05T08:11:35.960Z,1.27
2022-11-05T08:14:02.674Z,1.30
2022-11-05T08:16:29.374Z,1.10
2022-11-05T08:18:56.093Z,1.33
2022-11-05T08:21:22.728Z,1.20
2022-11-05T08:23:49.424Z,1.27
2022-11-05T08:26:16.105Z,1.50
2022-11-05T08:28:42.778Z,2.00
2022-11-05T08:31:09.411Z,2.20
2022-11-05T08:33:36.117Z,2.17
2022-11-05T08:36:04.358Z,2.10
2022-11-05T08:38:31.059Z,2.78
2022-11-05T08:40:58.578Z,2.97
2022-11-05T08:43:25.855Z,3.45
2022-11-05T08:45:52.738Z,3.50
2022-11-05T08:48:19.501Z,3.58
2022-11-05T08:50:47.867Z,3.95
2022-11-05T08:53:15.503Z,3.75
2022-11-05T08:55:43.989Z,3.63
2022-11-05T08:58:12.832Z,4.40
2022-11-05T09:00:40.195Z,4.53
2022-11-05T09:03:09.189Z,4.95
2022-11-05T09:05:40.436Z,4.63
2022-11-05T09:08:09.973Z,5.85
2022-11-05T09:10:37.160Z,5.50
2022-11-05T09:13:04.670Z,5.93
2022-11-05T09:15:31.486Z,5.65
2022-11-05T09:17:58.162Z,5.82
2022-11-05T09:20:25.387Z,6.47
2022-11-05T09:22:52.100Z,6.50
2022-11-05T09:25:18.747Z,6.55
2022-11-05T09:27:45.543Z,7.10
2022-11-05T09:30:13.950Z,7.13
2022-11-05T09:32:41.379Z,6.90
2022-11-05T09:35:08.838Z,7.25
2022-11-05T09:37:38.706Z,7.60
2022-11-05T09:40:06.733Z,7.38
2022-11-05T09:42:39.740Z,8.57
2022-11-05T09:45:20.931Z,8.95
2022-11-05T09:47:51.491Z,7.32
2022-11-05T09:50:38.543Z,6.95
2022-11-05T09:53:05.438Z,7.03
2022-11-05T09:55:41.988Z,6.97
2022-11-05T09:58:24.534Z,7.30
2022-11-05T10:00:55.221Z,6.13
2022-11-05T10:03:24.744Z,6.00
2022-11-05T10:05:53.786Z,6.50
2022-11-05T10:08:23.749Z,5.95
2022-11-05T10:10:56.439Z,6.68
2022-11-05T10:13:42.390Z,6.78
2022-11-05T10:16:30.947Z,6.50
2022-11-05T10:19:06.164Z,7.00
2022-11-05T10:22:04.179Z,7.40
2022-11-05T10:24:21.427Z,6.70
2022-11-05T10:26:51.463Z,7.13
2022-11-05T10:29:30.323Z,6.28
2022-11-05T10:31:58.691Z,5.45
2022-11-05T10:34:30.907Z,6.05
2022-11-05T10:36:57.904Z,6.18
2022-11-05T10:39:27.938Z,6.05
2022-11-05T10:42:13.513Z,6.47
2022-11-05T10:44:45.237Z,7.10
2022-11-05T10:47:31.843Z,6.85
2022-11-05T10:50:01.167Z,7.03
2022-11-05T10:52:52.573Z,6.70
2022-11-05T10:55:23.643Z,6.70
2022-11-05T10:57:50.604Z,7.75
2022-11-05T11:00:17.194Z,6.70
2022-11-05T11:02:50.322Z,6.43
2022-11-05T11:05:32.830Z,5.80
2022-11-05T11:10:48.861Z,5.97
2022-11-05T11:13:21.235Z,3.55
2022-11-05T11:15:50.942Z,2.90
2022-11-05T11:18:42.008Z,2.63
2022-11-05T11:21:23.085Z,2.15
2022-11-05T11:23:55.846Z,2.85
2022-11-05T11:26:24.669Z,2.15
2022-11-05T11:28:59.413Z,2.20
2022-11-05T11:31:29.276Z,2.85
2022-11-05T11:34:19.029Z,2.67
2022-11-05T11:36:48.610Z,3.50
2022-11-05T11:39:22.141Z,3.10
2022-11-05T11:41:55.430Z,3.65
2022-11-05T11:44:27.383Z,4.05
2022-11-05T11:47:04.963Z,3.50
2022-11-05T11:49:58.225Z,3.55
2022-11-05T11:52:31.371Z,5.00
2022-11-05T11:55:13.334Z,4.75
2022-11-05T11:57:50.607Z,4.60
2022-11-05T12:00:18.598Z,4.75
2022-11-05T12:03:01.913Z,4.72
2022-11-05T12:05:39.012Z,4.20
2022-11-05T12:08:24.118Z,3.75
2022-11-05T12:11:04.445Z,3.70
2022-11-05T12:13:56.662Z,4.15
2022-11-05T12:16:42.014Z,4.80
2022-11-05T12:19:11.637Z,5.57
2022-11-05T12:22:00.438Z,5.00
2022-11-05T12:24:45.883Z,4.50
2022-11-05T12:27:40.342Z,4.20
2022-11-05T12:30:21.810Z,3.58
2022-11-05T12:32:54.782Z,3.35
2022-11-05T12:35:21.431Z,3.78
2022-11-05T12:38:18.507Z,3.85
2022-11-05T12:40:56.012Z,4.15
2022-11-05T12:43:41.402Z,4.35
2022-11-05T12:46:11.096Z,3.65
2022-11-05T12:48:47.091Z,3.78
2022-11-05T12:51:38.837Z,4.32
2022-11-05T12:54:31.475Z,4.57
2022-11-05T12:59:33.580Z,4.18
2022-11-05T13:02:38.952Z,3.17
2022-11-05T13:05:14.948Z,3.53
2022-11-05T13:08:04.864Z,4.72
2022-11-05T13:10:36.912Z,3.90
2022-11-05T13:13:16.442Z,3.55
2022-11-05T13:15:50.773Z,3.85
2022-11-05T13:18:24.156Z,3.05
2022-11-05T13:20:53.744Z,3.13
2022-11-05T13:23:31.809Z,3.05
2022-11-05T13:26:19.526Z,3.60
2022-11-05T13:28:49.452Z,3.40
2022-11-05T13:31:21.631Z,3.72
2022-11-05T13:33:51.242Z,3.38
2022-11-05T13:36:49.515Z,3.70
2022-11-05T13:39:41.801Z,4.28
2022-11-05T13:42:36.633Z,3.97
2022-11-05T13:45:29.634Z,3.97
2022-11-05T13:48:05.624Z,4.75
2022-11-05T13:50:53.857Z,4.50
2022-11-05T13:53:50.870Z,5.57
2022-11-05T13:56:21.977Z,5.78
2022-11-05T13:59:26.882Z,5.88
2022-11-05T14:02:29.170Z,5.93
2022-11-05T14:05:01.398Z,5.93
2022-11-05T14:07:47.675Z,5.40
2022-11-05T14:10:26.363Z,5.53
2022-11-05T14:12:55.728Z,5.90
2022-11-05T14:15:26.493Z,5.82
2022-11-05T14:17:56.490Z,6.18
2022-11-05T14:20:46.466Z,6.20
2022-11-05T14:23:25.501Z,6.38
2022-11-05T14:26:13.073Z,6.05
2022-11-05T14:28:49.122Z,6.18
2022-11-05T14:31:18.830Z,5.63
2022-11-05T14:34:01.149Z,5.50
2022-11-05T14:36:39.240Z,5.75
2022-11-05T14:39:14.825Z,5.05
2022-11-05T14:42:02.925Z,6.43
2022-11-05T14:44:33.234Z,6.18
2022-11-05T14:47:04.933Z,6.10
2022-11-05T14:49:49.260Z,6.32
2022-11-05T14:52:18.761Z,6.15
2022-11-05T14:54:50.705Z,6.95
2022-11-05T14:57:42.366Z,6.18
2022-11-05T15:00:40.491Z,5.75
2022-11-05T15:03:46.259Z,5.78
2022-11-05T15:06:32.075Z,6.10
2022-11-05T15:09:26.824Z,6.05
2022-11-05T15:11:56.556Z,6.28
2022-11-05T15:14:34.810Z,6.55
2022-11-05T15:17:22.545Z,5.82
2022-11-05T15:19:51.239Z,6.30
2022-11-05T15:22:34.564Z,5.80
2022-11-05T15:25:05.667Z,7.20
2022-11-05T15:27:46.500Z,6.88
2022-11-05T15:30:17.297Z,5.78
2022-11-05T15:32:44.180Z,6.68
2022-11-05T15:35:29.744Z,6.55
2022-11-05T15:38:02.061Z,6.95
2022-11-05T15:40:33.511Z,6.70
2022-11-05T15:43:21.726Z,7.38
2022-11-05T15:46:03.997Z,6.50
2022-11-05T15:48:31.797Z,7.85
2022-11-05T15:50:59.062Z,7.72
2022-11-05T15:54:16.074Z,7.50
2022-11-05T15:56:50.293Z,7.50
2022-11-05T15:59:20.481Z,6.97
2022-11-05T16:01:51.877Z,8.10
2022-11-05T16:04:27.923Z,7.63
2022-11-05T16:07:06.588Z,7.93
2022-11-05T16:09:36.133Z,8.27
2022-11-05T16:12:18.024Z,7.55
2022-11-05T16:14:56.628Z,8.98
2022-11-05T16:17:25.638Z,7.63
2022-11-05T16:19:53.179Z,7.57
2022-11-05T16:22:20.729Z,7.90
2022-11-05T16:24:48.042Z,8.20
2022-11-05T16:27:20.878Z,6.82
2022-11-05T16:29:49.144Z,7.88
2022-11-05T16:32:31.728Z,8.50
2022-11-05T16:35:06.740Z,7.55
2022-11-05T16:37:41.724Z,8.27
2022-11-05T16:40:24.283Z,7.47
2022-11-05T16:45:21.955Z,7.13
2022-11-05T16:47:49.026Z,8.13
2022-11-05T16:50:17.425Z,7.70
2022-11-05T16:52:46.009Z,8.52
2022-11-05T16:55:14.789Z,7.80
2022-11-05T16:57:43.481Z,7.32
2022-11-05T17:00:16.620Z,8.30
2022-11-05T17:02:44.105Z,7.38
2022-11-05T17:05:26.285Z,6.78
2022-11-05T17:07:53.712Z,7.25
2022-11-05T17:10:21.843Z,7.38
2022-11-05T17:12:49.239Z,7.30
2022-11-05T17:15:36.172Z,7.20
2022-11-05T17:18:04.822Z,8.15
2022-11-05T17:20:43.254Z,8.00
2022-11-05T17:23:12.286Z,7.18
2022-11-05T17:25:40.720Z,7.50
2022-11-05T17:28:07.757Z,8.13
2022-11-05T17:30:35.079Z,8.98
2022-11-05T17:33:02.070Z,9.57
2022-11-05T17:35:28.974Z,10.40
2022-11-05T17:37:55.705Z,10.02
2022-11-05T17:40:23.675Z,10.68
2022-11-05T17:42:51.540Z,8.70
2022-11-05T17:45:18.714Z,8.60
2022-11-05T17:47:45.399Z,9.05
2022-11-05T17:50:14.783Z,9.52
2022-11-05T17:52:41.468Z,9.82
2022-11-05T17:55:16.600Z,9.38
2022-11-05T17:57:47.357Z,9.82
2022-11-05T18:00:22.163Z,10.40
2022-11-05T18:02:51.716Z,9.55
2022-11-05T18:05:20.261Z,15.35
2022-11-05T18:07:48.366Z,12.35
2022-11-05T18:10:15.864Z,12.02
2022-11-05T18:12:43.493Z,12.10
2022-11-05T18:15:10.454Z,10.07
2022-11-05T18:17:37.429Z,10.32
2022-11-05T18:20:11.671Z,11.57
2022-11-05T18:22:40.117Z,13.05
2022-11-05T18:25:08.151Z,14.13
2022-11-05T18:27:35.416Z,13.40
2022-11-05T18:30:02.193Z,11.93
2022-11-05T18:32:28.844Z,13.60
2022-11-05T18:34:55.487Z,16.60
2022-11-05T18:37:22.393Z,17.98
2022-11-05T18:39:53.087Z,16.08
2022-11-05T18:42:21.129Z,17.90
2022-11-05T18:44:48.325Z,16.83
2022-11-05T18:47:15.170Z,17.02
2022-11-05T18:49:41.851Z,16.38
2022-11-05T18:52:08.663Z,13.60
2022-11-05T18:54:35.455Z,15.98
2022-11-05T18:57:02.365Z,15.15
2022-11-05T18:59:39.260Z,13.23
2022-11-05T19:02:08.650Z,15.73
2022-11-05T19:04:38.606Z,15.05
2022-11-05T19:07:07.362Z,15.15
2022-11-05T19:09:35.333Z,15.38
2022-11-05T19:12:03.271Z,15.38
2022-11-05T19:14:30.356Z,15.20
2022-11-05T19:16:58.349Z,15.20
2022-11-05T19:19:25.667Z,14.43
2022-11-05T19:21:52.414Z,15.38
2022-11-05T19:24:19.106Z,14.18
2022-11-05T19:26:46.825Z,13.02
2022-11-05T19:29:13.809Z,11.85
2022-11-05T19:31:40.482Z,9.23
2022-11-05T19:34:07.216Z,8.00
2022-11-05T19:36:34.259Z,7.40
2022-11-05T19:39:04.164Z,8.32
2022-11-05T19:41:31.043Z,8.15
2022-11-05T19:43:58.832Z,8.98
2022-11-05T19:46:25.766Z,9.40
2022-11-05T19:48:53.113Z,8.93
2022-11-05T19:51:22.754Z,10.25
2022-11-05T19:53:51.716Z,10.95
2022-11-05T19:56:21.808Z,9.98
2022-11-05T19:58:49.263Z,9.23
2022-11-05T20:01:17.311Z,8.57
2022-11-05T20:03:44.701Z,8.73
2022-11-05T20:06:15.342Z,8.45
2022-11-05T20:09:07.208Z,9.20
2022-11-05T20:11:29.518Z,9.63
2022-11-05T20:13:57.149Z,9.07
2022-11-05T20:16:30.036Z,10.13
2022-11-05T20:18:57.427Z,10.23
2022-11-05T20:21:24.104Z,10.90
2022-11-05T20:23:50.830Z,10.70
2022-11-05T20:26:17.466Z,11.27
2022-11-05T20:28:44.320Z,12.35
2022-11-05T20:31:13.775Z,16.63
2022-11-05T20:33:41.800Z,13.02
2022-11-05T20:36:13.107Z,12.07
2022-11-05T20:38:39.995Z,11.30
2022-11-05T20:41:11.741Z,10.82
2022-11-05T20:43:41.116Z,11.75
2022-11-05T20:46:09.913Z,9.95
2022-11-05T20:48:36.797Z,11.13
2022-11-05T20:51:09.035Z,12.77
2022-11-05T20:53:36.660Z,13.02
2022-11-05T20:56:07.783Z,13.07
2022-11-05T20:58:36.493Z,11.85
2022-11-05T21:01:04.876Z,8.95
2022-11-05T21:03:31.852Z,7.10
2022-11-05T21:06:00.002Z,6.82
2022-11-05T21:08:28.228Z,7.75
2022-11-05T21:10:55.867Z,7.15
2022-11-05T21:13:23.576Z,7.88
2022-11-05T21:15:52.700Z,7.80
2022-11-05T21:18:21.263Z,9.07
2022-11-05T21:20:48.117Z,7.70
2022-11-05T21:23:15.773Z,7.60
2022-11-05T21:25:44.070Z,8.23
2022-11-05T21:28:12.808Z,8.82
2022-11-05T21:30:45.056Z,8.43
2022-11-05T21:33:13.862Z,8.18
2022-11-05T21:35:41.753Z,7.53
2022-11-05T21:38:08.470Z,7.53
2022-11-05T21:40:35.196Z,7.50
2022-11-05T21:43:01.902Z,8.60
2022-11-05T21:45:28.600Z,7.10
2022-11-05T21:47:56.067Z,7.85
2022-11-05T21:50:43.644Z,9.00
2022-11-05T21:53:35.834Z,7.97
2022-11-05T21:56:26.170Z,9.27
2022-11-05T21:59:11.517Z,9.40
2022-11-05T22:01:38.312Z,9.38
2022-11-05T22:04:05.114Z,10.27
2022-11-05T22:06:34.808Z,9.85
2022-11-05T22:09:01.493Z,7.78
2022-11-05T22:11:28.525Z,6.97
2022-11-05T22:13:55.220Z,6.22
2022-11-05T22:16:21.866Z,5.82
2022-11-05T22:18:48.531Z,5.93
2022-11-05T22:21:17.175Z,5.80
2022-11-05T22:23:43.918Z,5.30
2022-11-05T22:26:10.569Z,5.88
2022-11-05T22:28:37.251Z,6.57
2022-11-05T22:31:04.062Z,6.07
2022-11-05T22:33:31.340Z,6.53
2022-11-05T22:35:58.000Z,6.22
2022-11-05T22:38:24.681Z,5.93
2022-11-05T22:40:51.331Z,5.75
2022-11-05T22:43:18.039Z,5.70
2022-11-05T22:45:45.590Z,5.47
2022-11-05T22:48:12.484Z,6.68
2022-11-05T22:50:39.789Z,7.05
2022-11-05T22:53:06.590Z,6.20
2022-11-05T22:55:33.282Z,7.40
2022-11-05T22:57:59.978Z,7.25
2022-11-05T23:00:35.843Z,7.78
2022-11-05T23:03:03.099Z,7.78
2022-11-05T23:05:30.068Z,7.80
2022-11-05T23:08:15.644Z,8.13
2022-11-05T23:11:01.092Z,7.82
2022-11-05T23:13:27.726Z,8.30
2022-11-05T23:16:12.991Z,9.38
2022-11-05T23:18:58.295Z,9.10
2022-11-05T23:21:43.784Z,8.75
2022-11-05T23:24:12.698Z,8.82
2022-11-05T23:26:51.938Z,9.20
2022-11-05T23:29:20.887Z,8.70
2022-11-05T23:32:06.191Z,7.60
2022-11-05T23:34:33.301Z,6.32
2022-11-05T23:37:18.585Z,7.22
2022-11-05T23:39:45.224Z,6.30
2022-11-05T23:42:30.512Z,7.63
2022-11-05T23:45:15.703Z,7.85
2022-11-05T23:48:01.574Z,7.97
2022-11-05T23:50:29.767Z,8.70
2022-11-05T23:52:56.791Z,8.43
2022-11-05T23:55:24.261Z,9.63
2022-11-05T23:57:51.511Z,8.75
